sensor_id;sensor_type;location;lat;lon;timestamp;pressure;altitude;pressure_sealevel;temperature;humidity
31092;BME280;67728;53.122;12.776;2023-04-23T00:00:17;99820.66;;;12.49;58.94
31092;BME280;67728;53.122;12.776;2023-04-23T00:01:48;99821.00;;;12.64;58.94
31092;BME280;67728;53.122;12.776;2023-04-23T00:03:22;99807.56;;;12.74;57.69
31092;BME280;67728;53.122;12.776;2023-04-23T00:04:56;99800.81;;;12.70;59.59
31092;BME280;67728;53.122;12.776;2023-04-23T00:06:35;99802.31;;;12.76;58.69
31092;BME280;67728;53.122;12.776;2023-04-23T00:08:09;99806.13;;;12.89;58.07
31092;BME280;67728;53.122;12.776;2023-04-23T00:09:42;99804.19;;;12.94;57.93
31092;BME280;67728;53.122;12.776;2023-04-23T00:11:13;99806.56;;;13.00;58.27
31092;BME280;67728;53.122;12.776;2023-04-23T00:12:45;99796.94;;;13.02;58.15
31092;BME280;67728;53.122;12.776;2023-04-23T00:14:19;99803.13;;;12.99;58.01
31092;BME280;67728;53.122;12.776;2023-04-23T00:15:51;99796.28;;;12.97;59.38
31092;BME280;67728;53.122;12.776;2023-04-23T00:17:22;99794.53;;;12.97;58.72
31092;BME280;67728;53.122;12.776;2023-04-23T00:18:54;99789.00;;;13.05;57.88
31092;BME280;67728;53.122;12.776;2023-04-23T00:20:24;99788.84;;;13.09;57.71
31092;BME280;67728;53.122;12.776;2023-04-23T00:21:56;99784.28;;;13.14;58.00
31092;BME280;67728;53.122;12.776;2023-04-23T00:23:28;99786.44;;;13.25;57.83
31092;BME280;67728;53.122;12.776;2023-04-23T00:25:00;99783.97;;;13.22;57.75
31092;BME280;67728;53.122;12.776;2023-04-23T00:26:30;99783.81;;;13.27;58.23
31092;BME280;67728;53.122;12.776;2023-04-23T00:28:03;99787.72;;;13.37;57.12
31092;BME280;67728;53.122;12.776;2023-04-23T00:29:36;99784.09;;;13.41;56.98
31092;BME280;67728;53.122;12.776;2023-04-23T00:31:08;99788.16;;;13.46;56.60
31092;BME280;67728;53.122;12.776;2023-04-23T00:32:40;99780.19;;;13.51;56.11
31092;BME280;67728;53.122;12.776;2023-04-23T00:34:12;99789.69;;;13.72;55.70
31092;BME280;67728;53.122;12.776;2023-04-23T00:35:43;99775.59;;;13.76;55.73
31092;BME280;67728;53.122;12.776;2023-04-23T00:37:15;99793.53;;;13.84;55.51
31092;BME280;67728;53.122;12.776;2023-04-23T00:38:47;99782.88;;;13.88;55.37
31092;BME280;67728;53.122;12.776;2023-04-23T00:40:19;99779.53;;;14.05;54.68
31092;BME280;67728;53.122;12.776;2023-04-23T00:41:50;99780.19;;;14.10;54.30
31092;BME280;67728;53.122;12.776;2023-04-23T00:43:22;99781.66;;;14.15;54.62
31092;BME280;67728;53.122;12.776;2023-04-23T00:44:56;99783.66;;;14.29;53.86
31092;BME280;67728;53.122;12.776;2023-04-23T00:46:27;99781.41;;;14.21;53.96
31092;BME280;67728;53.122;12.776;2023-04-23T00:47:59;99776.59;;;14.31;53.48
31092;BME280;67728;53.122;12.776;2023-04-23T00:49:30;99775.88;;;14.48;53.01
31092;BME280;67728;53.122;12.776;2023-04-23T00:51:03;99780.81;;;14.35;54.33
31092;BME280;67728;53.122;12.776;2023-04-23T00:52:35;99777.84;;;14.22;55.09
31092;BME280;67728;53.122;12.776;2023-04-23T00:54:08;99771.84;;;14.41;53.46
31092;BME280;67728;53.122;12.776;2023-04-23T00:55:40;99774.25;;;14.45;53.90
31092;BME280;67728;53.122;12.776;2023-04-23T00:57:11;99775.75;;;14.30;54.63
31092;BME280;67728;53.122;12.776;2023-04-23T00:58:43;99771.19;;;14.35;53.74
31092;BME280;67728;53.122;12.776;2023-04-23T01:00:16;99778.06;;;14.38;53.67
31092;BME280;67728;53.122;12.776;2023-04-23T01:01:49;99771.50;;;14.48;53.38
31092;BME280;67728;53.122;12.776;2023-04-23T01:03:21;99771.56;;;14.47;53.15
31092;BME280;67728;53.122;12.776;2023-04-23T01:04:54;99770.91;;;14.42;54.10
31092;BME280;67728;53.122;12.776;2023-04-23T01:06:26;99771.84;;;14.59;52.99
31092;BME280;67728;53.122;12.776;2023-04-23T01:07:59;99772.63;;;14.61;53.04
31092;BME280;67728;53.122;12.776;2023-04-23T01:09:30;99766.97;;;14.52;54.45
31092;BME280;67728;53.122;12.776;2023-04-23T01:11:02;99775.94;;;14.46;55.39
31092;BME280;67728;53.122;12.776;2023-04-23T01:12:34;99767.63;;;14.38;56.40
31092;BME280;67728;53.122;12.776;2023-04-23T01:14:06;99756.13;;;14.42;55.83
31092;BME280;67728;53.122;12.776;2023-04-23T01:15:41;99766.84;;;14.36;56.88
31092;BME280;67728;53.122;12.776;2023-04-23T01:17:13;99764.94;;;14.19;57.61
31092;BME280;67728;53.122;12.776;2023-04-23T01:18:43;99762.50;;;14.16;57.85
31092;BME280;67728;53.122;12.776;2023-04-23T01:20:15;99757.56;;;14.29;57.37
31092;BME280;67728;53.122;12.776;2023-04-23T01:21:49;99759.06;;;14.16;58.87
31092;BME280;67728;53.122;12.776;2023-04-23T01:23:21;99759.19;;;14.13;58.54
31092;BME280;67728;53.122;12.776;2023-04-23T01:24:53;99764.00;;;14.22;57.82
31092;BME280;67728;53.122;12.776;2023-04-23T01:26:25;99757.06;;;14.21;58.20
31092;BME280;67728;53.122;12.776;2023-04-23T01:27:56;99763.69;;;14.09;59.88
31092;BME280;67728;53.122;12.776;2023-04-23T01:29:29;99762.00;;;14.08;58.54
31092;BME280;67728;53.122;12.776;2023-04-23T01:31:00;99758.47;;;14.09;59.28
31092;BME280;67728;53.122;12.776;2023-04-23T01:32:33;99759.72;;;14.01;59.93
31092;BME280;67728;53.122;12.776;2023-04-23T01:34:05;99762.47;;;13.98;60.41
31092;BME280;67728;53.122;12.776;2023-04-23T01:35:39;99760.06;;;13.93;60.93
31092;BME280;67728;53.122;12.776;2023-04-23T01:37:11;99764.50;;;13.91;60.93
31092;BME280;67728;53.122;12.776;2023-04-23T01:38:43;99761.91;;;13.91;61.24
31092;BME280;67728;53.122;12.776;2023-04-23T01:40:15;99770.75;;;13.87;61.73
31092;BME280;67728;53.122;12.776;2023-04-23T01:41:46;99768.44;;;13.81;62.57
31092;BME280;67728;53.122;12.776;2023-04-23T01:43:19;99775.16;;;13.66;63.16
31092;BME280;67728;53.122;12.776;2023-04-23T01:44:51;99765.31;;;13.73;62.50
31092;BME280;67728;53.122;12.776;2023-04-23T01:46:23;99768.56;;;13.78;61.93
31092;BME280;67728;53.122;12.776;2023-04-23T01:47:55;99767.72;;;13.77;61.40
31092;BME280;67728;53.122;12.776;2023-04-23T01:49:27;99766.16;;;13.73;63.15
31092;BME280;67728;53.122;12.776;2023-04-23T01:50:58;99764.84;;;13.63;63.39
31092;BME280;67728;53.122;12.776;2023-04-23T01:52:31;99772.53;;;13.66;62.62
31092;BME280;67728;53.122;12.776;2023-04-23T01:54:04;99768.09;;;13.68;62.80
31092;BME280;67728;53.122;12.776;2023-04-23T01:55:37;99766.44;;;13.67;62.04
31092;BME280;67728;53.122;12.776;2023-04-23T01:57:09;99770.91;;;13.64;63.02
31092;BME280;67728;53.122;12.776;2023-04-23T01:58:39;99768.22;;;13.65;62.35
31092;BME280;67728;53.122;12.776;2023-04-23T02:00:13;99764.28;;;13.57;64.22
31092;BME280;67728;53.122;12.776;2023-04-23T02:01:47;99757.72;;;13.48;64.22
31092;BME280;67728;53.122;12.776;2023-04-23T02:03:17;99755.94;;;13.49;63.63
31092;BME280;67728;53.122;12.776;2023-04-23T02:04:50;99763.81;;;13.47;63.97
31092;BME280;67728;53.122;12.776;2023-04-23T02:06:22;99768.16;;;13.47;64.36
31092;BME280;67728;53.122;12.776;2023-04-23T02:07:54;99764.53;;;13.51;64.08
31092;BME280;67728;53.122;12.776;2023-04-23T02:09:27;99762.59;;;13.56;64.02
31092;BME280;67728;53.122;12.776;2023-04-23T02:10:59;99757.50;;;13.53;64.62
31092;BME280;67728;53.122;12.776;2023-04-23T02:12:31;99758.22;;;13.56;64.03
31092;BME280;67728;53.122;12.776;2023-04-23T02:14:02;99751.81;;;13.63;63.23
31092;BME280;67728;53.122;12.776;2023-04-23T02:15:34;99764.72;;;13.66;63.62
31092;BME280;67728;53.122;12.776;2023-04-23T02:17:07;99754.38;;;13.65;63.37
31092;BME280;67728;53.122;12.776;2023-04-23T02:18:38;99746.50;;;13.66;63.35
31092;BME280;67728;53.122;12.776;2023-04-23T02:20:10;99748.31;;;13.64;63.77
31092;BME280;67728;53.122;12.776;2023-04-23T02:21:41;99761.53;;;13.60;63.65
31092;BME280;67728;53.122;12.776;2023-04-23T02:23:12;99754.81;;;13.54;64.08
31092;BME280;67728;53.122;12.776;2023-04-23T02:24:45;99750.59;;;13.52;64.28
31092;BME280;67728;53.122;12.776;2023-04-23T02:26:17;99758.47;;;13.50;63.97
31092;BME280;67728;53.122;12.776;2023-04-23T02:27:49;99754.97;;;13.51;64.24
31092;BME280;67728;53.122;12.776;2023-04-23T02:29:21;99752.09;;;13.57;63.48
31092;BME280;67728;53.122;12.776;2023-04-23T02:30:52;99749.47;;;13.57;64.17
31092;BME280;67728;53.122;12.776;2023-04-23T02:32:23;99744.00;;;13.63;63.95
31092;BME280;67728;53.122;12.776;2023-04-23T02:33:55;99748.25;;;13.66;63.90
31092;BME280;67728;53.122;12.776;2023-04-23T02:35:27;99746.81;;;13.59;64.05
31092;BME280;67728;53.122;12.776;2023-04-23T02:36:57;99754.78;;;13.56;64.42
31092;BME280;67728;53.122;12.776;2023-04-23T02:38:29;99756.41;;;13.58;63.89
31092;BME280;67728;53.122;12.776;2023-04-23T02:40:03;99750.31;;;13.58;64.03
31092;BME280;67728;53.122;12.776;2023-04-23T02:41:35;99752.94;;;13.58;64.45
31092;BME280;67728;53.122;12.776;2023-04-23T02:43:07;99765.19;;;13.56;65.43
31092;BME280;67728;53.122;12.776;2023-04-23T02:44:39;99754.16;;;13.49;65.79
31092;BME280;67728;53.122;12.776;2023-04-23T02:46:10;99757.84;;;13.45;65.15
31092;BME280;67728;53.122;12.776;2023-04-23T02:47:42;99756.91;;;13.46;66.51
31092;BME280;67728;53.122;12.776;2023-04-23T02:49:14;99749.25;;;13.43;66.76
31092;BME280;67728;53.122;12.776;2023-04-23T02:50:45;99749.50;;;13.37;67.47
31092;BME280;67728;53.122;12.776;2023-04-23T02:52:17;99748.72;;;13.35;67.62
31092;BME280;67728;53.122;12.776;2023-04-23T02:53:48;99745.31;;;13.33;66.95
31092;BME280;67728;53.122;12.776;2023-04-23T02:55:21;99749.19;;;13.25;68.09
31092;BME280;67728;53.122;12.776;2023-04-23T02:56:51;99743.88;;;13.26;68.42
31092;BME280;67728;53.122;12.776;2023-04-23T02:58:23;99738.75;;;13.25;68.54
31092;BME280;67728;53.122;12.776;2023-04-23T02:59:54;99741.28;;;13.26;68.18
31092;BME280;67728;53.122;12.776;2023-04-23T03:01:25;99739.78;;;13.21;67.98
31092;BME280;67728;53.122;12.776;2023-04-23T03:02:57;99738.03;;;13.21;68.61
31092;BME280;67728;53.122;12.776;2023-04-23T03:04:29;99743.75;;;13.29;68.63
31092;BME280;67728;53.122;12.776;2023-04-23T03:06:01;99745.44;;;13.30;68.77
31092;BME280;67728;53.122;12.776;2023-04-23T03:07:32;99743.03;;;13.26;68.96
31092;BME280;67728;53.122;12.776;2023-04-23T03:09:04;99736.94;;;13.27;69.12
31092;BME280;67728;53.122;12.776;2023-04-23T03:10:36;99738.06;;;13.19;69.32
31092;BME280;67728;53.122;12.776;2023-04-23T03:12:07;99737.38;;;13.16;68.90
31092;BME280;67728;53.122;12.776;2023-04-23T03:13:39;99741.47;;;13.22;68.67
31092;BME280;67728;53.122;12.776;2023-04-23T03:15:11;99733.78;;;13.18;69.55
31092;BME280;67728;53.122;12.776;2023-04-23T03:16:42;99734.69;;;13.17;69.64
31092;BME280;67728;53.122;12.776;2023-04-23T03:18:14;99731.56;;;13.09;69.37
31092;BME280;67728;53.122;12.776;2023-04-23T03:19:46;99737.91;;;13.02;69.90
31092;BME280;67728;53.122;12.776;2023-04-23T03:21:18;99731.66;;;13.06;70.28
31092;BME280;67728;53.122;12.776;2023-04-23T03:22:49;99735.91;;;13.09;69.72
31092;BME280;67728;53.122;12.776;2023-04-23T03:24:21;99731.56;;;13.09;69.62
31092;BME280;67728;53.122;12.776;2023-04-23T03:25:54;99728.09;;;13.09;70.17
31092;BME280;67728;53.122;12.776;2023-04-23T03:27:24;99728.19;;;13.06;70.17
31092;BME280;67728;53.122;12.776;2023-04-23T03:28:56;99723.91;;;13.05;69.75
31092;BME280;67728;53.122;12.776;2023-04-23T03:30:28;99737.06;;;13.02;71.20
31092;BME280;67728;53.122;12.776;2023-04-23T03:31:59;99735.47;;;12.98;70.73
31092;BME280;67728;53.122;12.776;2023-04-23T03:33:30;99735.63;;;12.95;70.81
31092;BME280;67728;53.122;12.776;2023-04-23T03:35:02;99736.72;;;12.89;71.97
31092;BME280;67728;53.122;12.776;2023-04-23T03:36:33;99740.34;;;12.85;72.05
31092;BME280;67728;53.122;12.776;2023-04-23T03:38:05;99735.25;;;12.82;71.74
31092;BME280;67728;53.122;12.776;2023-04-23T03:39:36;99737.13;;;12.79;71.87
31092;BME280;67728;53.122;12.776;2023-04-23T03:41:08;99740.56;;;12.79;72.85
31092;BME280;67728;53.122;12.776;2023-04-23T03:42:40;99745.09;;;12.76;72.47
31092;BME280;67728;53.122;12.776;2023-04-23T03:44:11;99745.84;;;12.78;72.75
31092;BME280;67728;53.122;12.776;2023-04-23T03:45:43;99736.47;;;12.74;72.13
31092;BME280;67728;53.122;12.776;2023-04-23T03:47:14;99735.81;;;12.69;73.80
31092;BME280;67728;53.122;12.776;2023-04-23T03:48:46;99740.00;;;12.73;72.44
31092;BME280;67728;53.122;12.776;2023-04-23T03:50:18;99734.72;;;12.74;72.82
31092;BME280;67728;53.122;12.776;2023-04-23T03:51:49;99726.13;;;12.72;72.92
31092;BME280;67728;53.122;12.776;2023-04-23T03:53:21;99727.84;;;12.73;73.02
31092;BME280;67728;53.122;12.776;2023-04-23T03:54:52;99731.44;;;12.69;72.67
31092;BME280;67728;53.122;12.776;2023-04-23T03:56:25;99732.13;;;12.74;73.00
31092;BME280;67728;53.122;12.776;2023-04-23T03:57:55;99736.59;;;12.71;73.83
31092;BME280;67728;53.122;12.776;2023-04-23T03:59:27;99733.16;;;12.70;72.87
31092;BME280;67728;53.122;12.776;2023-04-23T04:00:58;99740.13;;;12.70;73.15
31092;BME280;67728;53.122;12.776;2023-04-23T04:02:29;99732.44;;;12.67;73.27
31092;BME280;67728;53.122;12.776;2023-04-23T04:04:00;99735.03;;;12.67;73.46
31092;BME280;67728;53.122;12.776;2023-04-23T04:05:31;99729.75;;;12.68;73.29
31092;BME280;67728;53.122;12.776;2023-04-23T04:07:03;99723.75;;;12.66;73.77
31092;BME280;67728;53.122;12.776;2023-04-23T04:08:36;99731.44;;;12.69;73.50
31092;BME280;67728;53.122;12.776;2023-04-23T04:10:08;99729.81;;;12.67;73.54
31092;BME280;67728;53.122;12.776;2023-04-23T04:11:42;99727.44;;;12.60;73.62
31092;BME280;67728;53.122;12.776;2023-04-23T04:13:12;99728.31;;;12.61;73.56
31092;BME280;67728;53.122;12.776;2023-04-23T04:14:45;99726.88;;;12.54;73.12
31092;BME280;67728;53.122;12.776;2023-04-23T04:16:16;99727.56;;;12.57;73.44
31092;BME280;67728;53.122;12.776;2023-04-23T04:17:47;99728.44;;;12.58;72.94
31092;BME280;67728;53.122;12.776;2023-04-23T04:19:19;99727.56;;;12.57;73.70
31092;BME280;67728;53.122;12.776;2023-04-23T04:20:50;99729.41;;;12.55;72.97
31092;BME280;67728;53.122;12.776;2023-04-23T04:22:22;99729.19;;;12.60;73.26
31092;BME280;67728;53.122;12.776;2023-04-23T04:23:55;99727.53;;;12.59;73.41
31092;BME280;67728;53.122;12.776;2023-04-23T04:25:26;99735.22;;;12.62;73.31
31092;BME280;67728;53.122;12.776;2023-04-23T04:27:00;99733.69;;;12.56;73.69
31092;BME280;67728;53.122;12.776;2023-04-23T04:28:32;99735.38;;;12.57;73.74
31092;BME280;67728;53.122;12.776;2023-04-23T04:30:07;99728.31;;;12.61;73.24
31092;BME280;67728;53.122;12.776;2023-04-23T04:31:39;99737.69;;;12.65;72.82
31092;BME280;67728;53.122;12.776;2023-04-23T04:33:10;99733.41;;;12.64;73.79
31092;BME280;67728;53.122;12.776;2023-04-23T04:34:41;99736.84;;;12.65;73.72
31092;BME280;67728;53.122;12.776;2023-04-23T04:36:12;99733.41;;;12.64;74.17
31092;BME280;67728;53.122;12.776;2023-04-23T04:37:44;99728.94;;;12.68;72.64
31092;BME280;67728;53.122;12.776;2023-04-23T04:39:16;99735.75;;;12.70;73.36
31092;BME280;67728;53.122;12.776;2023-04-23T04:40:47;99734.72;;;12.74;72.76
31092;BME280;67728;53.122;12.776;2023-04-23T04:42:21;99739.06;;;12.74;73.40
31092;BME280;67728;53.122;12.776;2023-04-23T04:43:53;99728.53;;;12.77;72.87
31092;BME280;67728;53.122;12.776;2023-04-23T04:45:24;99732.78;;;12.79;73.03
31092;BME280;67728;53.122;12.776;2023-04-23T04:46:56;99738.72;;;12.83;72.82
31092;BME280;67728;53.122;12.776;2023-04-23T04:48:28;99737.75;;;12.85;72.63
31092;BME280;67728;53.122;12.776;2023-04-23T04:49:59;99735.00;;;12.88;72.95
31092;BME280;67728;53.122;12.776;2023-04-23T04:51:31;99735.91;;;12.87;74.32
31092;BME280;67728;53.122;12.776;2023-04-23T04:53:02;99735.06;;;12.87;73.29
31092;BME280;67728;53.122;12.776;2023-04-23T04:54:33;99737.53;;;12.90;73.58
31092;BME280;67728;53.122;12.776;2023-04-23T04:56:05;99741.59;;;12.97;72.72
31092;BME280;67728;53.122;12.776;2023-04-23T04:57:37;99746.69;;;13.00;72.08
31092;BME280;67728;53.122;12.776;2023-04-23T04:59:09;99747.47;;;13.02;73.06
31092;BME280;67728;53.122;12.776;2023-04-23T05:00:40;99749.00;;;13.07;73.24
31092;BME280;67728;53.122;12.776;2023-04-23T05:02:11;99742.06;;;13.08;73.19
31092;BME280;67728;53.122;12.776;2023-04-23T05:03:43;99743.47;;;13.15;72.77
31092;BME280;67728;53.122;12.776;2023-04-23T05:05:14;99747.72;;;13.17;72.16
31092;BME280;67728;53.122;12.776;2023-04-23T05:06:46;99745.97;;;13.18;72.56
31092;BME280;67728;53.122;12.776;2023-04-23T05:08:17;99748.44;;;13.21;73.18
31092;BME280;67728;53.122;12.776;2023-04-23T05:09:51;99745.75;;;13.23;72.98
31092;BME280;67728;53.122;12.776;2023-04-23T05:11:21;99749.19;;;13.25;73.24
31092;BME280;67728;53.122;12.776;2023-04-23T05:12:55;99743.16;;;13.23;72.79
31092;BME280;67728;53.122;12.776;2023-04-23T05:14:26;99751.91;;;13.22;74.12
31092;BME280;67728;53.122;12.776;2023-04-23T05:15:58;99745.97;;;13.18;74.71
31092;BME280;67728;53.122;12.776;2023-04-23T05:17:30;99749.59;;;13.14;75.22
31092;BME280;67728;53.122;12.776;2023-04-23T05:19:01;99747.78;;;13.16;74.94
31092;BME280;67728;53.122;12.776;2023-04-23T05:20:32;99748.50;;;13.19;75.09
31092;BME280;67728;53.122;12.776;2023-04-23T05:22:04;99750.19;;;13.21;75.27
31092;BME280;67728;53.122;12.776;2023-04-23T05:23:36;99748.56;;;13.18;75.98
31092;BME280;67728;53.122;12.776;2023-04-23T05:25:08;99748.78;;;13.13;76.73
31092;BME280;67728;53.122;12.776;2023-04-23T05:26:40;99747.13;;;13.11;77.06
31092;BME280;67728;53.122;12.776;2023-04-23T05:28:13;99754.22;;;13.06;79.67
31092;BME280;67728;53.122;12.776;2023-04-23T05:29:45;99749.88;;;13.08;78.31
31092;BME280;67728;53.122;12.776;2023-04-23T05:31:15;99753.56;;;13.01;79.33
31092;BME280;67728;53.122;12.776;2023-04-23T05:32:48;99749.97;;;12.83;79.53
31092;BME280;67728;53.122;12.776;2023-04-23T05:34:19;99752.03;;;12.75;80.70
31092;BME280;67728;53.122;12.776;2023-04-23T05:35:51;99755.59;;;12.73;80.95
31092;BME280;67728;53.122;12.776;2023-04-23T05:37:24;99754.94;;;12.68;81.04
31092;BME280;67728;53.122;12.776;2023-04-23T05:38:55;99755.28;;;12.58;83.34
31092;BME280;67728;53.122;12.776;2023-04-23T05:40:27;99761.69;;;12.50;83.58
31092;BME280;67728;53.122;12.776;2023-04-23T05:41:59;99761.09;;;12.43;84.17
31092;BME280;67728;53.122;12.776;2023-04-23T05:43:32;99757.47;;;12.47;84.20
31092;BME280;67728;53.122;12.776;2023-04-23T05:45:05;99766.28;;;12.43;83.67
31092;BME280;67728;53.122;12.776;2023-04-23T05:46:37;99760.28;;;12.41;84.33
31092;BME280;67728;53.122;12.776;2023-04-23T05:48:09;99763.81;;;12.40;84.44
31092;BME280;67728;53.122;12.776;2023-04-23T05:49:40;99761.31;;;12.37;83.76
31092;BME280;67728;53.122;12.776;2023-04-23T05:51:12;99769.00;;;12.40;84.92
31092;BME280;67728;53.122;12.776;2023-04-23T05:52:43;99761.03;;;12.45;84.78
31092;BME280;67728;53.122;12.776;2023-04-23T05:54:14;99769.72;;;12.44;85.06
31092;BME280;67728;53.122;12.776;2023-04-23T05:55:46;99773.91;;;12.48;85.09
31092;BME280;67728;53.122;12.776;2023-04-23T05:57:18;99766.13;;;12.48;85.85
31092;BME280;67728;53.122;12.776;2023-04-23T05:58:51;99769.72;;;12.44;85.34
31092;BME280;67728;53.122;12.776;2023-04-23T06:00:22;99774.22;;;12.40;85.31
31092;BME280;67728;53.122;12.776;2023-04-23T06:01:54;99770.78;;;12.38;85.06
31092;BME280;67728;53.122;12.776;2023-04-23T06:03:26;99773.06;;;12.47;84.95
31092;BME280;67728;53.122;12.776;2023-04-23T06:04:58;99766.84;;;12.51;83.81
31092;BME280;67728;53.122;12.776;2023-04-23T06:06:28;99773.63;;;12.55;84.27
31092;BME280;67728;53.122;12.776;2023-04-23T06:08:00;99769.06;;;12.60;84.40
31092;BME280;67728;53.122;12.776;2023-04-23T06:09:32;99770.91;;;12.58;85.07
31092;BME280;67728;53.122;12.776;2023-04-23T06:11:04;99767.41;;;12.59;84.17
31092;BME280;67728;53.122;12.776;2023-04-23T06:12:36;99769.69;;;12.67;84.14
31092;BME280;67728;53.122;12.776;2023-04-23T06:14:09;99769.59;;;12.70;84.19
31092;BME280;67728;53.122;12.776;2023-04-23T06:15:41;99774.06;;;12.67;84.57
31092;BME280;67728;53.122;12.776;2023-04-23T06:17:13;99767.03;;;12.69;85.07
31092;BME280;67728;53.122;12.776;2023-04-23T06:18:44;99768.63;;;12.73;84.25
31092;BME280;67728;53.122;12.776;2023-04-23T06:20:16;99768.63;;;12.73;84.93
31092;BME280;67728;53.122;12.776;2023-04-23T06:21:49;99766.91;;;12.72;84.89
31092;BME280;67728;53.122;12.776;2023-04-23T06:23:21;99774.69;;;12.73;85.38
31092;BME280;67728;53.122;12.776;2023-04-23T06:24:53;99771.03;;;12.77;85.10
31092;BME280;67728;53.122;12.776;2023-04-23T06:26:25;99773.09;;;12.69;85.69
31092;BME280;67728;53.122;12.776;2023-04-23T06:27:57;99773.97;;;12.68;84.82
31092;BME280;67728;53.122;12.776;2023-04-23T06:29:30;99781.00;;;12.66;86.45
31092;BME280;67728;53.122;12.776;2023-04-23T06:31:02;99774.91;;;12.67;85.27
31092;BME280;67728;53.122;12.776;2023-04-23T06:32:34;99781.94;;;12.65;86.60
31092;BME280;67728;53.122;12.776;2023-04-23T06:34:06;99776.47;;;12.71;85.89
31092;BME280;67728;53.122;12.776;2023-04-23T06:35:38;99776.41;;;12.73;86.80
31092;BME280;67728;53.122;12.776;2023-04-23T06:37:10;99776.34;;;12.74;85.69
31092;BME280;67728;53.122;12.776;2023-04-23T06:38:41;99776.22;;;12.77;86.85
31092;BME280;67728;53.122;12.776;2023-04-23T06:40:14;99772.78;;;12.77;86.13
31092;BME280;67728;53.122;12.776;2023-04-23T06:41:45;99778.75;;;12.79;85.75
31092;BME280;67728;53.122;12.776;2023-04-23T06:43:17;99778.91;;;12.76;86.29
31092;BME280;67728;53.122;12.776;2023-04-23T06:44:50;99782.53;;;12.72;87.35
31092;BME280;67728;53.122;12.776;2023-04-23T06:46:22;99792.03;;;12.73;86.29
31092;BME280;67728;53.122;12.776;2023-04-23T06:47:53;99783.38;;;12.72;86.60
31092;BME280;67728;53.122;12.776;2023-04-23T06:49:25;99786.84;;;12.73;87.40
31092;BME280;67728;53.122;12.776;2023-04-23T06:50:57;99785.19;;;12.70;87.24
31092;BME280;67728;53.122;12.776;2023-04-23T06:52:29;99782.75;;;12.66;87.25
31092;BME280;67728;53.122;12.776;2023-04-23T06:54:00;99782.03;;;12.62;87.01
31092;BME280;67728;53.122;12.776;2023-04-23T06:55:34;99783.25;;;12.53;86.82
31092;BME280;67728;53.122;12.776;2023-04-23T06:57:05;99786.63;;;12.55;87.71
31092;BME280;67728;53.122;12.776;2023-04-23T06:58:37;99785.06;;;12.51;88.16
31092;BME280;67728;53.122;12.776;2023-04-23T07:00:12;99786.06;;;12.47;88.12
31092;BME280;67728;53.122;12.776;2023-04-23T07:01:44;99785.41;;;12.42;87.37
31092;BME280;67728;53.122;12.776;2023-04-23T07:03:16;99791.34;;;12.46;88.08
31092;BME280;67728;53.122;12.776;2023-04-23T07:04:47;99786.25;;;12.43;88.73
31092;BME280;67728;53.122;12.776;2023-04-23T07:06:19;99797.44;;;12.45;88.74
31092;BME280;67728;53.122;12.776;2023-04-23T07:07:50;99798.31;;;12.44;88.11
31092;BME280;67728;53.122;12.776;2023-04-23T07:09:22;99790.72;;;12.39;88.28
31092;BME280;67728;53.122;12.776;2023-04-23T07:10:54;99794.28;;;12.37;89.10
31092;BME280;67728;53.122;12.776;2023-04-23T07:12:26;99788.34;;;12.33;88.91
31092;BME280;67728;53.122;12.776;2023-04-23T07:13:57;99796.13;;;12.33;88.69
31092;BME280;67728;53.122;12.776;2023-04-23T07:15:31;99789.81;;;12.40;89.24
31092;BME280;67728;53.122;12.776;2023-04-23T07:17:02;99788.00;;;12.42;89.57
31092;BME280;67728;53.122;12.776;2023-04-23T07:18:34;99792.41;;;12.40;89.70
31092;BME280;67728;53.122;12.776;2023-04-23T07:20:07;99791.56;;;12.40;89.57
31092;BME280;67728;53.122;12.776;2023-04-23T07:21:39;99789.81;;;12.40;89.97
31092;BME280;67728;53.122;12.776;2023-04-23T07:23:11;99788.19;;;12.38;89.06
31092;BME280;67728;53.122;12.776;2023-04-23T07:24:43;99797.66;;;12.39;89.71
31092;BME280;67728;53.122;12.776;2023-04-23T07:26:14;99797.63;;;12.40;90.06
31092;BME280;67728;53.122;12.776;2023-04-23T07:27:46;99795.84;;;12.41;89.38
31092;BME280;67728;53.122;12.776;2023-04-23T07:29:18;99788.78;;;12.44;89.68
31092;BME280;67728;53.122;12.776;2023-04-23T07:30:52;99792.16;;;12.46;89.34
31092;BME280;67728;53.122;12.776;2023-04-23T07:32:22;99791.94;;;12.52;89.95
31092;BME280;67728;53.122;12.776;2023-04-23T07:33:57;99795.47;;;12.51;89.75
31092;BME280;67728;53.122;12.776;2023-04-23T07:35:31;99790.25;;;12.51;89.26
31092;BME280;67728;53.122;12.776;2023-04-23T07:37:03;99798.84;;;12.53;88.96
31092;BME280;67728;53.122;12.776;2023-04-23T07:38:35;99796.28;;;12.52;89.27
31092;BME280;67728;53.122;12.776;2023-04-23T07:40:07;99790.97;;;12.55;89.59
31092;BME280;67728;53.122;12.776;2023-04-23T07:41:39;99797.78;;;12.59;89.86
31092;BME280;67728;53.122;12.776;2023-04-23T07:43:11;99798.47;;;12.63;88.90
31092;BME280;67728;53.122;12.776;2023-04-23T07:44:43;99801.16;;;12.61;88.92
31092;BME280;67728;53.122;12.776;2023-04-23T07:46:16;99799.28;;;12.65;89.87
31092;BME280;67728;53.122;12.776;2023-04-23T07:47:49;99795.72;;;12.67;90.33
31092;BME280;67728;53.122;12.776;2023-04-23T07:49:21;99795.94;;;12.61;89.06
31092;BME280;67728;53.122;12.776;2023-04-23T07:50:53;99800.97;;;12.66;89.61
31092;BME280;67728;53.122;12.776;2023-04-23T07:52:24;99800.00;;;12.68;89.96
31092;BME280;67728;53.122;12.776;2023-04-23T07:53:56;99798.34;;;12.66;89.90
31092;BME280;67728;53.122;12.776;2023-04-23T07:55:28;99795.84;;;12.64;90.01
31092;BME280;67728;53.122;12.776;2023-04-23T07:56:58;99797.25;;;12.73;89.13
31092;BME280;67728;53.122;12.776;2023-04-23T07:58:30;99801.47;;;12.75;89.53
31092;BME280;67728;53.122;12.776;2023-04-23T08:00:04;99798.56;;;12.83;89.39